createdAt,value
2023-04-29T00:00:10.423Z,49.80
2023-04-29T00:02:37.096Z,47.08
2023-04-29T00:05:05.469Z,59.22
2023-04-29T00:07:36.537Z,57.80
2023-04-29T00:10:03.308Z,50.90
2023-04-29T00:12:32.040Z,64.32
2023-04-29T00:14:58.627Z,54.42
2023-04-29T00:17:25.223Z,56.95
2023-04-29T00:19:52.042Z,60.67
2023-04-29T00:22:19.152Z,50.55
2023-04-29T00:24:45.701Z,62.63
2023-04-29T00:27:12.200Z,56.70
2023-04-29T00:29:38.737Z,56.80
2023-04-29T00:32:05.445Z,53.00
2023-04-29T00:34:31.861Z,54.97
2023-04-29T00:36:58.320Z,45.08
2023-04-29T00:39:24.838Z,44.08
2023-04-29T00:41:52.034Z,43.63
2023-04-29T00:44:18.534Z,52.05
2023-04-29T00:46:45.159Z,38.20
2023-04-29T00:49:13.591Z,57.13
2023-04-29T00:51:40.768Z,39.40
2023-04-29T00:54:08.082Z,44.60
2023-04-29T00:56:35.691Z,49.20
2023-04-29T00:59:03.534Z,45.85
2023-04-29T01:01:30.635Z,54.80
2023-04-29T01:03:57.807Z,48.65
2023-04-29T01:06:30.696Z,49.97
2023-04-29T01:09:05.964Z,52.63
2023-04-29T01:11:40.032Z,51.45
2023-04-29T01:14:07.828Z,47.25
2023-04-29T01:16:37.862Z,49.15
2023-04-29T01:19:16.988Z,50.45
2023-04-29T01:21:52.042Z,48.17
2023-04-29T01:24:18.558Z,62.63
2023-04-29T01:26:49.739Z,53.20
2023-04-29T01:29:28.858Z,54.22
2023-04-29T01:32:15.611Z,47.65
2023-04-29T01:34:51.075Z,54.25
2023-04-29T01:37:19.543Z,52.05
2023-04-29T01:39:58.367Z,53.00
2023-04-29T01:42:26.738Z,50.10
2023-04-29T01:44:55.349Z,45.22
2023-04-29T01:47:22.177Z,48.97
2023-04-29T01:49:49.936Z,45.50
2023-04-29T01:52:16.494Z,53.35
2023-04-29T01:54:43.653Z,49.33
2023-04-29T01:57:10.274Z,58.25
2023-04-29T01:59:36.928Z,44.08
2023-04-29T02:02:03.554Z,69.93
2023-04-29T02:04:33.736Z,51.90
2023-04-29T02:07:00.271Z,53.20
2023-04-29T02:09:26.844Z,48.88
2023-04-29T02:11:53.282Z,54.37
2023-04-29T02:14:19.724Z,45.63
2023-04-29T02:16:46.465Z,54.38
2023-04-29T02:19:13.291Z,51.42
2023-04-29T02:21:40.238Z,42.28
2023-04-29T02:24:07.191Z,48.90
2023-04-29T02:26:34.634Z,49.97
2023-04-29T02:29:01.363Z,51.28
2023-04-29T02:31:29.472Z,57.05
2023-04-29T02:33:56.143Z,38.60
2023-04-29T02:36:23.000Z,48.43
2023-04-29T02:38:50.830Z,37.45
2023-04-29T02:41:18.512Z,47.28
2023-04-29T02:43:45.477Z,37.97
2023-04-29T02:46:12.232Z,39.10
2023-04-29T02:48:38.731Z,35.47
2023-04-29T02:51:05.326Z,37.03
2023-04-29T02:53:32.029Z,41.47
2023-04-29T02:55:58.517Z,35.80
2023-04-29T02:58:25.183Z,34.08
2023-04-29T03:00:51.797Z,25.23
2023-04-29T03:03:18.568Z,31.45
2023-04-29T03:05:45.649Z,27.00
2023-04-29T03:08:12.138Z,26.45
2023-04-29T03:10:41.509Z,31.17
2023-04-29T03:13:08.581Z,29.88
2023-04-29T03:15:35.048Z,28.75
2023-04-29T03:18:04.110Z,30.20
2023-04-29T03:20:30.755Z,34.72
2023-04-29T03:22:57.457Z,36.03
2023-04-29T03:25:24.121Z,38.78
2023-04-29T03:27:50.593Z,33.35
2023-04-29T03:30:17.698Z,33.30
2023-04-29T03:32:44.449Z,34.55
2023-04-29T03:35:14.129Z,33.22
2023-04-29T03:37:44.494Z,39.95
2023-04-29T03:40:12.060Z,38.45
2023-04-29T03:42:38.885Z,36.22
2023-04-29T03:45:05.748Z,44.88
2023-04-29T03:47:32.360Z,33.50
2023-04-29T03:49:58.944Z,37.45
2023-04-29T03:52:25.966Z,38.45
2023-04-29T03:54:52.391Z,34.13
2023-04-29T03:57:18.913Z,41.40
2023-04-29T03:59:45.815Z,39.13
2023-04-29T04:02:12.327Z,39.30
2023-04-29T04:04:39.331Z,33.83
2023-04-29T04:07:06.168Z,32.95
2023-04-29T04:09:33.590Z,38.15
2023-04-29T04:12:01.004Z,36.20
2023-04-29T04:14:27.642Z,43.77
2023-04-29T04:16:54.900Z,37.67
2023-04-29T04:19:21.502Z,40.13
2023-04-29T04:21:48.009Z,31.13
2023-04-29T04:24:14.604Z,42.70
2023-04-29T04:26:42.428Z,37.33
2023-04-29T04:29:09.062Z,39.65
2023-04-29T04:31:36.919Z,35.88
2023-04-29T04:34:03.528Z,40.45
2023-04-29T04:36:29.969Z,38.28
2023-04-29T04:38:56.671Z,36.27
2023-04-29T04:41:23.137Z,30.73
2023-04-29T04:43:49.674Z,34.97
2023-04-29T04:46:16.976Z,32.22
2023-04-29T04:48:43.836Z,32.67
2023-04-29T04:51:10.767Z,33.00
2023-04-29T04:53:39.667Z,30.02
2023-04-29T04:56:09.554Z,28.48
2023-04-29T04:58:36.372Z,27.63
2023-04-29T05:01:02.992Z,40.63
2023-04-29T05:03:29.585Z,29.17
2023-04-29T05:06:00.446Z,34.42
2023-04-29T05:08:27.330Z,31.77
2023-04-29T05:10:54.469Z,39.85
2023-04-29T05:13:21.331Z,30.67
2023-04-29T05:15:48.049Z,31.10
2023-04-29T05:18:14.697Z,40.10
2023-04-29T05:20:41.275Z,39.75
2023-04-29T05:23:07.990Z,29.17
2023-04-29T05:25:34.871Z,29.85
2023-04-29T05:28:03.494Z,29.87
2023-04-29T05:30:30.363Z,36.30
2023-04-29T05:32:56.986Z,35.80
2023-04-29T05:35:23.701Z,31.27
2023-04-29T05:37:50.277Z,32.63
2023-04-29T05:40:18.071Z,30.50
2023-04-29T05:42:44.710Z,30.35
2023-04-29T05:45:12.583Z,29.98
2023-04-29T05:47:39.135Z,32.92
2023-04-29T05:50:06.021Z,34.03
2023-04-29T05:52:32.714Z,26.20
2023-04-29T05:54:59.479Z,31.08
2023-04-29T05:57:26.107Z,31.98
2023-04-29T05:59:55.218Z,30.08
2023-04-29T06:02:22.466Z,32.28
2023-04-29T06:04:49.493Z,28.60
2023-04-29T06:07:18.885Z,32.45
2023-04-29T06:09:46.544Z,32.90
2023-04-29T06:12:13.290Z,39.13
2023-04-29T06:14:41.346Z,33.22
2023-04-29T06:17:08.147Z,31.37
2023-04-29T06:19:35.018Z,29.73
2023-04-29T06:22:01.525Z,33.33
2023-04-29T06:24:28.255Z,31.20
2023-04-29T06:26:54.795Z,29.05
2023-04-29T06:29:21.253Z,31.33
2023-04-29T06:31:47.884Z,27.83
2023-04-29T06:34:14.390Z,29.77
2023-04-29T06:36:41.688Z,34.90
2023-04-29T06:39:08.443Z,33.67
2023-04-29T06:41:34.972Z,38.70
2023-04-29T06:44:01.781Z,31.50
2023-04-29T06:46:29.460Z,28.58
2023-04-29T06:48:56.111Z,33.20
2023-04-29T06:51:22.622Z,33.35
2023-04-29T06:53:49.510Z,29.50
2023-04-29T06:56:17.162Z,29.52
2023-04-29T06:58:44.873Z,25.83
2023-04-29T07:01:11.680Z,36.78
2023-04-29T07:03:38.549Z,30.55
2023-04-29T07:06:05.359Z,31.07
2023-04-29T07:08:36.091Z,30.13
2023-04-29T07:11:03.043Z,33.35
2023-04-29T07:13:29.697Z,33.05
2023-04-29T07:15:56.597Z,33.50
2023-04-29T07:18:23.512Z,30.40
2023-04-29T07:20:52.087Z,33.05
2023-04-29T07:23:18.785Z,37.83
2023-04-29T07:25:45.273Z,32.05
2023-04-29T07:28:12.126Z,27.65
2023-04-29T07:30:38.781Z,37.87
2023-04-29T07:33:05.619Z,32.17
2023-04-29T07:35:32.758Z,29.58
2023-04-29T07:37:59.307Z,33.08
2023-04-29T07:40:26.411Z,30.13
2023-04-29T07:42:53.280Z,42.13
2023-04-29T07:45:19.849Z,29.20
2023-04-29T07:47:46.509Z,25.38
2023-04-29T07:50:13.203Z,26.15
2023-04-29T07:52:39.730Z,30.05
2023-04-29T07:55:06.563Z,27.53
2023-04-29T07:57:33.481Z,33.53
2023-04-29T07:59:59.966Z,35.40
2023-04-29T08:02:26.610Z,27.50
2023-04-29T08:04:55.127Z,30.02
2023-04-29T08:07:22.019Z,27.13
2023-04-29T08:09:48.606Z,28.02
2023-04-29T08:12:15.116Z,24.73
2023-04-29T08:14:41.672Z,27.90
2023-04-29T08:17:08.932Z,26.33
2023-04-29T08:19:36.018Z,25.87
2023-04-29T08:22:04.350Z,21.05
2023-04-29T08:24:33.767Z,24.50
2023-04-29T08:27:00.284Z,24.27
2023-04-29T08:29:26.869Z,23.13
2023-04-29T08:31:53.549Z,19.87
2023-04-29T08:34:20.029Z,24.63
2023-04-29T08:36:46.741Z,23.92
2023-04-29T08:39:13.315Z,27.33
2023-04-29T08:41:39.884Z,23.92
2023-04-29T08:44:06.973Z,23.10
2023-04-29T08:46:33.812Z,20.55
2023-04-29T08:49:03.932Z,22.92
2023-04-29T08:51:32.437Z,25.60
2023-04-29T08:53:59.290Z,20.50
2023-04-29T08:56:28.126Z,19.47
2023-04-29T08:58:55.542Z,23.35
2023-04-29T09:01:23.334Z,21.45
2023-04-29T09:03:50.202Z,23.95
2023-04-29T09:06:17.800Z,22.05
2023-04-29T09:08:44.597Z,24.87
2023-04-29T09:11:12.275Z,24.27
2023-04-29T09:13:39.005Z,23.15
2023-04-29T09:16:10.501Z,22.40
2023-04-29T09:18:45.608Z,25.00
2023-04-29T09:21:15.296Z,20.77
2023-04-29T09:23:42.472Z,17.83
2023-04-29T09:26:09.410Z,22.30
2023-04-29T09:28:35.944Z,17.55
2023-04-29T09:31:06.250Z,22.42
2023-04-29T09:33:33.375Z,21.60
2023-04-29T09:36:01.057Z,15.65
2023-04-29T09:38:27.548Z,20.33
2023-04-29T09:40:59.690Z,16.63
2023-04-29T09:43:28.204Z,15.82
2023-04-29T09:45:56.524Z,17.83
2023-04-29T09:48:30.749Z,17.23
2023-04-29T09:51:04.363Z,18.17
2023-04-29T09:53:31.671Z,18.08
2023-04-29T09:56:02.278Z,19.40
2023-04-29T09:58:31.258Z,18.27
2023-04-29T10:00:59.706Z,22.23
2023-04-29T10:03:27.078Z,18.58
2023-04-29T10:05:54.066Z,18.48
2023-04-29T10:08:21.344Z,18.60
2023-04-29T10:10:49.084Z,14.87
2023-04-29T10:13:15.664Z,17.05
2023-04-29T10:15:50.552Z,13.20
2023-04-29T10:18:24.894Z,14.95
2023-04-29T10:20:53.409Z,15.05
2023-04-29T10:23:20.600Z,15.43
2023-04-29T10:25:48.256Z,15.75
2023-04-29T10:28:17.135Z,16.67
2023-04-29T10:30:50.469Z,17.40
2023-04-29T10:33:17.779Z,15.70
2023-04-29T10:35:47.702Z,17.73
2023-04-29T10:38:21.193Z,15.00
2023-04-29T10:40:47.853Z,19.00
2023-04-29T10:43:15.150Z,14.90
2023-04-29T10:45:41.793Z,12.25
2023-04-29T10:48:13.099Z,12.97
2023-04-29T10:50:43.719Z,12.07
2023-04-29T10:53:10.794Z,11.43
2023-04-29T10:55:38.986Z,10.38
2023-04-29T10:58:06.257Z,16.25
2023-04-29T11:00:36.218Z,16.83
2023-04-29T11:03:05.713Z,12.65
2023-04-29T11:05:33.357Z,11.30
2023-04-29T11:08:09.611Z,13.07
2023-04-29T11:10:37.066Z,11.05
2023-04-29T11:13:23.040Z,10.57
2023-04-29T11:15:51.168Z,12.60
2023-04-29T11:18:18.058Z,17.98
2023-04-29T11:21:04.814Z,15.05
2023-04-29T11:23:32.182Z,12.88
2023-04-29T11:25:58.731Z,13.43
2023-04-29T11:28:27.380Z,14.70
2023-04-29T11:30:54.048Z,8.77
2023-04-29T11:33:20.678Z,10.23
2023-04-29T11:35:47.360Z,12.38
2023-04-29T11:38:13.959Z,12.67
2023-04-29T11:40:59.748Z,12.50
2023-04-29T11:43:26.439Z,14.13
2023-04-29T11:45:53.569Z,10.65
2023-04-29T11:48:20.223Z,12.82
2023-04-29T11:50:48.006Z,14.17
2023-04-29T11:53:14.692Z,10.48
2023-04-29T11:55:44.835Z,10.15
2023-04-29T11:58:11.329Z,10.88
2023-04-29T12:00:38.388Z,11.73
2023-04-29T12:03:15.541Z,9.70
2023-04-29T12:05:49.707Z,11.02
2023-04-29T12:08:19.796Z,12.13
2023-04-29T12:10:47.101Z,11.48
2023-04-29T12:13:13.817Z,11.43
2023-04-29T12:15:41.153Z,9.10
2023-04-29T12:18:08.624Z,11.27
2023-04-29T12:20:35.354Z,10.88
2023-04-29T12:23:26.899Z,11.18
2023-04-29T12:25:54.996Z,9.85
2023-04-29T12:28:21.720Z,12.90
2023-04-29T12:30:48.704Z,13.13
2023-04-29T12:33:22.724Z,12.60
2023-04-29T12:35:50.479Z,15.98
2023-04-29T12:38:29.708Z,14.30
2023-04-29T12:40:59.720Z,13.50
2023-04-29T12:43:27.339Z,12.10
2023-04-29T12:45:54.693Z,20.15
2023-04-29T12:48:29.736Z,10.43
2023-04-29T12:50:59.781Z,9.93
2023-04-29T12:53:27.309Z,13.87
2023-04-29T12:55:54.065Z,10.35
2023-04-29T12:58:20.609Z,9.00
2023-04-29T13:00:47.178Z,9.77
2023-04-29T13:03:14.425Z,12.32
2023-04-29T13:05:41.254Z,10.13
2023-04-29T13:08:08.527Z,8.50
2023-04-29T13:10:35.633Z,9.73
2023-04-29T13:13:02.697Z,8.13
2023-04-29T13:15:29.503Z,7.65
2023-04-29T13:17:57.299Z,9.17
2023-04-29T13:20:23.929Z,6.82
2023-04-29T13:22:50.584Z,10.07
2023-04-29T13:25:17.584Z,6.75
2023-04-29T13:27:44.298Z,8.30
2023-04-29T13:30:11.117Z,11.83
2023-04-29T13:32:46.069Z,9.00
2023-04-29T13:35:18.069Z,7.60
2023-04-29T13:37:44.711Z,13.55
2023-04-29T13:40:19.797Z,10.23
2023-04-29T13:42:50.182Z,13.37
2023-04-29T13:45:20.134Z,11.98
2023-04-29T13:48:05.909Z,15.63
2023-04-29T13:53:35.886Z,9.32
2023-04-29T13:56:46.490Z,9.53
2023-04-29T14:01:26.142Z,8.63
2023-04-29T14:03:52.772Z,9.35
2023-04-29T14:06:19.383Z,9.48
2023-04-29T14:08:46.251Z,7.17
2023-04-29T14:11:12.675Z,6.75
2023-04-29T14:13:39.277Z,7.30
2023-04-29T14:16:06.950Z,10.55
2023-04-29T14:18:33.738Z,10.68
2023-04-29T14:21:00.563Z,12.13
2023-04-29T14:23:27.054Z,8.98
2023-04-29T14:25:58.866Z,6.95
2023-04-29T14:28:33.255Z,6.65
2023-04-29T14:30:59.796Z,6.97
2023-04-29T14:33:26.456Z,6.60
2023-04-29T14:35:53.525Z,8.60
2023-04-29T14:38:20.567Z,7.97
2023-04-29T14:40:47.485Z,12.00
2023-04-29T14:43:13.988Z,11.13
2023-04-29T14:45:41.076Z,9.47
2023-04-29T14:48:08.290Z,9.80
2023-04-29T14:50:34.821Z,9.57
2023-04-29T14:53:01.849Z,8.98
2023-04-29T14:55:30.845Z,9.88
2023-04-29T14:57:58.367Z,8.33
2023-04-29T15:00:25.157Z,7.28
2023-04-29T15:02:53.913Z,11.20
2023-04-29T15:05:21.502Z,7.10
2023-04-29T15:07:48.256Z,7.20
2023-04-29T15:10:14.819Z,8.07
2023-04-29T15:12:41.685Z,7.68
2023-04-29T15:15:08.676Z,11.30
2023-04-29T15:17:35.654Z,7.90
2023-04-29T15:20:02.326Z,9.43
2023-04-29T15:22:29.294Z,7.10
2023-04-29T15:24:55.865Z,9.07
2023-04-29T15:27:22.425Z,10.27
2023-04-29T15:29:48.975Z,8.50
2023-04-29T15:32:15.666Z,12.90
2023-04-29T15:34:42.175Z,13.83
2023-04-29T15:37:08.762Z,14.07
2023-04-29T15:39:35.423Z,19.23
2023-04-29T15:42:02.010Z,20.77
2023-04-29T15:44:31.240Z,21.60
2023-04-29T15:46:57.915Z,12.50
2023-04-29T15:49:25.702Z,12.20
2023-04-29T15:51:53.862Z,18.17
2023-04-29T15:54:21.212Z,13.75
2023-04-29T15:56:47.986Z,19.13
2023-04-29T15:59:16.604Z,17.77
2023-04-29T16:01:43.204Z,12.25
2023-04-29T16:04:10.252Z,15.57
2023-04-29T16:06:37.092Z,19.30
2023-04-29T16:09:06.217Z,15.63
2023-04-29T16:11:32.969Z,15.87
2023-04-29T16:13:59.694Z,15.70
2023-04-29T16:16:26.351Z,11.95
2023-04-29T16:18:52.821Z,18.83
2023-04-29T16:21:20.154Z,14.05
2023-04-29T16:23:47.100Z,15.10
2023-04-29T16:26:13.944Z,12.02
2023-04-29T16:28:40.735Z,12.05
2023-04-29T16:31:07.789Z,14.13
2023-04-29T16:33:34.336Z,14.32
2023-04-29T16:36:01.698Z,19.10
2023-04-29T16:38:28.359Z,14.82
2023-04-29T16:40:56.362Z,14.15
2023-04-29T16:43:22.867Z,13.95
2023-04-29T16:45:50.162Z,16.10
2023-04-29T16:48:16.905Z,12.83
2023-04-29T16:50:43.797Z,19.90
2023-04-29T16:53:10.268Z,18.98
2023-04-29T16:55:38.294Z,20.10
2023-04-29T16:58:05.402Z,15.45
2023-04-29T17:00:31.989Z,12.40
2023-04-29T17:02:59.529Z,11.63
2023-04-29T17:05:27.368Z,14.45
2023-04-29T17:07:54.402Z,11.93
2023-04-29T17:10:20.940Z,18.33
2023-04-29T17:12:47.538Z,14.13
2023-04-29T17:15:14.001Z,13.85
2023-04-29T17:17:42.310Z,14.38
2023-04-29T17:20:09.246Z,15.40
2023-04-29T17:22:35.824Z,20.50
2023-04-29T17:25:02.521Z,20.63
2023-04-29T17:27:29.053Z,14.52
2023-04-29T17:29:55.900Z,17.25
2023-04-29T17:32:28.816Z,16.23
2023-04-29T17:34:56.294Z,14.07
2023-04-29T17:37:25.093Z,14.23
2023-04-29T17:39:53.036Z,15.65
2023-04-29T17:42:21.548Z,15.23
2023-04-29T17:44:48.520Z,19.90
2023-04-29T17:47:17.205Z,17.10
2023-04-29T17:49:44.058Z,13.23
2023-04-29T17:52:11.224Z,14.10
2023-04-29T17:54:41.209Z,13.38
2023-04-29T17:57:08.363Z,16.30
2023-04-29T17:59:35.521Z,15.65
2023-04-29T18:02:01.996Z,16.77
2023-04-29T18:04:28.452Z,15.95
2023-04-29T18:06:55.075Z,12.65
2023-04-29T18:09:21.735Z,14.73
2023-04-29T18:11:49.350Z,12.20
2023-04-29T18:14:15.794Z,14.30
2023-04-29T18:16:43.055Z,15.63
2023-04-29T18:19:09.661Z,16.67
2023-04-29T18:21:36.195Z,15.80
2023-04-29T18:24:03.186Z,13.57
2023-04-29T18:26:30.030Z,18.13
2023-04-29T18:28:58.088Z,15.80
2023-04-29T18:31:26.700Z,16.05
2023-04-29T18:33:53.370Z,17.05
2023-04-29T18:36:21.432Z,12.77
2023-04-29T18:38:48.324Z,11.97
2023-04-29T18:41:15.122Z,18.73
2023-04-29T18:43:41.608Z,16.67
2023-04-29T18:46:08.612Z,13.15
2023-04-29T18:48:36.630Z,22.13
2023-04-29T18:51:05.517Z,17.97
2023-04-29T18:53:32.082Z,11.82
2023-04-29T18:55:58.529Z,10.52
2023-04-29T18:58:26.771Z,14.07
2023-04-29T19:00:53.649Z,12.85
2023-04-29T19:03:20.770Z,11.70
2023-04-29T19:05:48.185Z,14.85
2023-04-29T19:08:17.756Z,12.25
2023-04-29T19:10:44.935Z,9.57
2023-04-29T19:13:11.645Z,10.60
2023-04-29T19:15:38.289Z,10.20
2023-04-29T19:18:05.164Z,9.30
2023-04-29T19:20:32.037Z,8.10
2023-04-29T19:22:58.463Z,7.78
2023-04-29T19:25:26.642Z,10.88
2023-04-29T19:27:53.507Z,9.43
2023-04-29T19:30:20.267Z,11.73
2023-04-29T19:32:47.577Z,8.73
2023-04-29T19:35:14.258Z,13.20
2023-04-29T19:37:40.953Z,8.63
2023-04-29T19:40:10.184Z,11.13
2023-04-29T19:42:37.191Z,10.60
2023-04-29T19:45:07.603Z,10.90
2023-04-29T19:47:35.262Z,10.15
2023-04-29T19:50:02.310Z,8.02
2023-04-29T19:52:29.815Z,9.70
2023-04-29T19:54:56.673Z,9.60
2023-04-29T19:57:23.342Z,13.77
2023-04-29T19:59:49.873Z,11.43
2023-04-29T20:02:16.506Z,11.95
2023-04-29T20:04:43.080Z,7.83
2023-04-29T20:07:09.579Z,12.35
2023-04-29T20:09:38.534Z,10.82
2023-04-29T20:12:05.131Z,9.30
2023-04-29T20:14:33.089Z,8.50
2023-04-29T20:17:00.672Z,10.20
2023-04-29T20:19:27.650Z,9.45
2023-04-29T20:21:54.208Z,10.45
2023-04-29T20:24:20.789Z,8.75
2023-04-29T20:26:48.099Z,8.20
2023-04-29T20:29:14.640Z,8.53
2023-04-29T20:31:41.381Z,13.07
2023-04-29T20:34:08.059Z,13.10
2023-04-29T20:36:34.615Z,10.23
2023-04-29T20:39:01.771Z,14.60
2023-04-29T20:41:29.250Z,9.10
2023-04-29T20:43:56.241Z,14.02
2023-04-29T20:46:25.266Z,10.77
2023-04-29T20:48:52.545Z,13.15
2023-04-29T20:51:19.147Z,16.83
2023-04-29T20:53:46.091Z,10.90
2023-04-29T20:56:13.759Z,10.43
2023-04-29T20:58:40.325Z,12.35
2023-04-29T21:01:07.069Z,10.35
2023-04-29T21:03:33.881Z,10.60
2023-04-29T21:06:00.702Z,9.60
2023-04-29T21:08:27.250Z,11.20
2023-04-29T21:10:53.909Z,10.93
2023-04-29T21:13:20.416Z,10.27
2023-04-29T21:15:46.954Z,14.68
2023-04-29T21:18:13.930Z,17.53
2023-04-29T21:20:40.566Z,11.20
2023-04-29T21:23:07.361Z,10.43
2023-04-29T21:25:34.272Z,15.10
2023-04-29T21:28:00.891Z,11.63
2023-04-29T21:30:27.450Z,10.33
2023-04-29T21:32:54.344Z,14.50
2023-04-29T21:35:20.868Z,15.55
2023-04-29T21:37:47.554Z,11.48
2023-04-29T21:40:14.567Z,11.38
2023-04-29T21:42:42.318Z,18.83
2023-04-29T21:45:08.995Z,11.18
2023-04-29T21:47:35.550Z,10.35
2023-04-29T21:50:02.257Z,12.23
2023-04-29T21:52:29.781Z,11.68
2023-04-29T21:54:56.544Z,12.03
2023-04-29T21:57:35.416Z,12.70
2023-04-29T22:00:36.594Z,13.07
2023-04-29T22:03:03.762Z,16.55
2023-04-29T22:05:30.503Z,18.48
2023-04-29T22:08:00.529Z,13.83
2023-04-29T22:10:27.549Z,12.13
2023-04-29T22:12:54.306Z,12.10
2023-04-29T22:15:28.209Z,11.70
2023-04-29T22:17:57.019Z,15.43
2023-04-29T22:20:27.428Z,14.30
2023-04-29T22:22:54.323Z,13.45
2023-04-29T22:25:22.072Z,13.75
2023-04-29T22:27:48.904Z,12.27
2023-04-29T22:30:17.870Z,21.00
2023-04-29T22:32:46.904Z,13.67
2023-04-29T22:35:13.703Z,12.75
2023-04-29T22:37:41.019Z,13.85
2023-04-29T22:40:08.451Z,11.70
2023-04-29T22:42:34.937Z,12.73
2023-04-29T22:45:01.701Z,15.70
2023-04-29T22:47:28.335Z,17.42
2023-04-29T22:49:55.039Z,12.05
2023-04-29T22:52:21.788Z,14.93
2023-04-29T22:54:48.335Z,14.70
2023-04-29T22:57:14.882Z,13.60
2023-04-29T22:59:41.391Z,13.07
2023-04-29T23:02:08.484Z,16.02
2023-04-29T23:04:35.157Z,14.48
2023-04-29T23:07:01.873Z,13.75
2023-04-29T23:09:28.573Z,14.40
2023-04-29T23:11:55.613Z,19.10
2023-04-29T23:14:22.153Z,15.88
2023-04-29T23:16:48.793Z,16.10
2023-04-29T23:19:15.856Z,13.13
2023-04-29T23:21:42.389Z,14.13
2023-04-29T23:24:09.237Z,14.27
2023-04-29T23:26:37.112Z,14.25
2023-04-29T23:29:03.927Z,15.10
2023-04-29T23:31:30.509Z,15.80
2023-04-29T23:33:57.088Z,17.07
2023-04-29T23:36:23.715Z,15.32
2023-04-29T23:38:50.490Z,16.40
2023-04-29T23:41:17.350Z,16.38
2023-04-29T23:43:44.129Z,14.43
2023-04-29T23:46:10.734Z,17.50
2023-04-29T23:48:37.389Z,16.60
2023-04-29T23:51:03.980Z,14.57
2023-04-29T23:53:30.706Z,17.55
2023-04-29T23:55:57.165Z,16.85
2023-04-29T23:58:23.746Z,16.93
